Aérodrome :
LOGIN :

S'inscrire | Disclaimer

   EN    FR    IT 

 










Légende :    VFR   VFR Marginal   IFR   IFR Intensif   IFR Très Intensif
Visi : 
Plafond : 
>= 8 km
>= 3000ft
5 à 8 km
1000 à 3000 ft
1500m à 5 km
500 à 1000 ft
800 à 1500m
200 à 500 ft
< 800m
< 200 ft
Symboles :   Orages  Brouillard  Fortes neiges  Fortes précipitations  Vent > 20 kt
SIGMETs :   Divers  Orages  Givrage  Turbulence  Onde Orograph.  Cendres Volcan.






- Altitude de l'aérodrome : 74 ft
- Code IATA : EIN


EHEH - Eindhoven

DERNIER METAR :
  • 172213Z AUTO 24015KT 210V270 9999 FEW020 BKN024 BKN035 08/05 Q1015 WHT

METARs EXPIRÉS :
  • 172155Z AUTO 24014KT 200V280 9999 SCT021 BKN024 OVC028 08/05 Q1015 WHT 23015G25KT 9999 FEW022 SCT025 TEMPO 24018G28KT FEW012 FEW015CB SCT025
  • 172125Z AUTO 24016KT 210V270 9999 BKN022 BKN025 OVC051 08/05 Q1015 WHT 23015G25KT 9999 FEW022 SCT025 TEMPO 24018G28KT FEW012 FEW015CB SCT025
  • 172055Z AUTO 23016KT 210V270 9999 SCT021 BKN024 OVC062 08/05 Q1014 WHT 23015G25KT 9999 FEW022 SCT025 TEMPO 24018G28KT FEW012 FEW015CB SCT025
  • 172050Z AUTO 23015KT 210V270 9999 SCT022 BKN025 OVC028 08/05 Q1014 WHT 23013G23KT 9999 FEW022 SCT025 TEMPO 24018G28KT FEW012 FEW015CB SCT025
  • 172025Z AUTO 23016KT 200V260 9999 FEW025 SCT029 BKN044 08/05 Q1014 BLU 23013G23KT 9999 FEW022 SCT025 TEMPO 24018G28KT FEW012 FEW015CB SCT025
  • 172007Z AUTO 23015KT 200V260 9999 FEW015CB SCT025 BKN028 OVC044 08/05 Q1014 BLU 23013G23KT 9999 FEW022 SCT025 TEMPO 24018G28KT FEW012 FEW015CB SCT025
  • 171955Z AUTO 23014KT 190V260 9999 FEW015CB SCT022 BKN025 OVC030 08/05 Q1014 WHT 23013G23KT 9999 FEW022 SCT025 TEMPO 24018G28KT FEW012 FEW015CB SCT025
  • 171938Z AUTO 23013KT 200V260 9999 SCT023 BKN027 OVC042 08/05 Q1014 WHT 23013G23KT 9999 FEW022 SCT035 TEMPO 24020G30KT 5000 SHRA SCT012 SCT015CB
  • 171929Z AUTO 22014KT 190V250 9999 BKN023 OVC026 08/05 Q1014 WHT 23013G23KT 9999 FEW022 SCT035 TEMPO 24020G30KT 5000 SHRA SCT012 SCT015CB

TAF TAF EHEH
Valide du 17 à 18h jusqu'au 19 à 00h UTC


171723Z 1718/1824 22015G25KT 9999 SCT025 BKN040
TEMPO 1718/1724 23018G28KT FEW012 SCT020CB BKN025
PROB30
TEMPO 1718/1722 24020G32KT 4000 SHRAGS TSRAGS SCT012 BKN018CB
BECMG 1806/1809 23013KT
TEMPO 1810/1818 24016G28KT SCT018CB BKN025
BECMG 1820/1822 22020KT -RA OVC020 TEMP0 1823/1824 24022G35KT 4000 RA SHRA FEW010 SCT015CB BKN020



MET'MAP, la Météo Aéronautique d'un coup d'oeil ! - Copyright ORBIFLY Décembre 2007 - Disclaimer

ORBIFLY MET'MAP TEAM :

Programmation & Développement : Alexandra Zaïnal
Sur une idée originale de : Baudouin d'Aumeries
Assistance à la programmation : Marc-Olivier Méhu
Soutien technique & logistique : Manuel Goepfert

Contact : metmap@orbifly.com




SOURCES & CREDITS :

   NOAA